createdAt,value
2018-10-06T00:00:03.614Z,971.21
2018-10-06T00:01:03.663Z,971.18
2018-10-06T00:02:03.715Z,971.20
2018-10-06T00:03:03.757Z,971.22
2018-10-06T00:04:03.846Z,971.22
2018-10-06T00:05:03.853Z,971.19
2018-10-06T00:06:03.902Z,971.20
2018-10-06T00:07:03.950Z,971.20
2018-10-06T00:08:03.995Z,971.20
2018-10-06T00:09:04.073Z,971.25
2018-10-06T00:10:04.093Z,971.30
2018-10-06T00:11:04.140Z,971.30
2018-10-06T00:12:04.196Z,971.27
2018-10-06T00:13:04.236Z,971.29
2018-10-06T00:14:04.305Z,971.24
2018-10-06T00:15:04.339Z,971.24
2018-10-06T00:16:04.407Z,971.24
2018-10-06T00:17:04.423Z,971.23
2018-10-06T00:18:04.479Z,971.18
2018-10-06T00:19:04.517Z,971.19
2018-10-06T00:20:04.569Z,971.16
2018-10-06T00:21:04.642Z,971.20
2018-10-06T00:22:04.663Z,971.21
2018-10-06T00:23:04.706Z,971.17
2018-10-06T00:24:04.767Z,971.11
2018-10-06T00:25:04.815Z,971.07
2018-10-06T00:26:04.877Z,971.08
2018-10-06T00:27:04.928Z,971.03
2018-10-06T00:28:04.949Z,971.04
2018-10-06T00:29:05.003Z,971.08
2018-10-06T00:30:05.043Z,971.07
2018-10-06T00:31:05.124Z,971.09
2018-10-06T00:32:05.137Z,971.17
2018-10-06T00:33:05.186Z,971.17
2018-10-06T00:34:05.248Z,971.23
2018-10-06T00:35:05.280Z,971.27
2018-10-06T00:36:05.344Z,971.26
2018-10-06T00:37:05.413Z,971.23
2018-10-06T00:38:05.420Z,971.20
2018-10-06T00:39:05.475Z,971.19
2018-10-06T00:40:05.517Z,971.16
2018-10-06T00:41:05.569Z,971.16
2018-10-06T00:42:05.633Z,971.12
2018-10-06T00:43:05.677Z,971.10
2018-10-06T00:44:05.724Z,971.13
2018-10-06T00:45:05.756Z,971.16
2018-10-06T00:46:05.804Z,971.10
2018-10-06T00:47:05.892Z,971.08
2018-10-06T00:48:05.899Z,971.07
2018-10-06T00:49:05.954Z,971.01
2018-10-06T00:50:05.992Z,971.05
2018-10-06T00:51:06.049Z,971.04
2018-10-06T00:52:06.116Z,971.03
2018-10-06T00:53:06.161Z,971.08
2018-10-06T00:54:06.201Z,971.07
2018-10-06T00:55:06.232Z,971.07
2018-10-06T00:56:06.278Z,971.08
2018-10-06T00:57:06.321Z,971.08
2018-10-06T00:58:06.370Z,971.04
2018-10-06T00:59:06.466Z,971.06
2018-10-06T01:00:06.464Z,971.05
2018-10-06T01:01:06.512Z,971.07
2018-10-06T01:02:06.562Z,971.03
2018-10-06T01:03:06.608Z,971.08
2018-10-06T01:04:06.677Z,971.07
2018-10-06T01:05:06.727Z,971.06
2018-10-06T01:06:06.755Z,971.00
2018-10-06T01:07:06.800Z,971.00
2018-10-06T01:08:06.846Z,970.98
2018-10-06T01:09:06.892Z,970.97
2018-10-06T01:10:06.959Z,970.99
2018-10-06T01:11:07.009Z,970.95
2018-10-06T01:12:07.036Z,970.95
2018-10-06T01:13:07.091Z,970.91
2018-10-06T01:14:07.133Z,970.85
2018-10-06T01:15:07.179Z,970.82
2018-10-06T01:16:07.259Z,970.81
2018-10-06T01:17:07.275Z,970.82
2018-10-06T01:18:07.329Z,970.82
2018-10-06T01:19:07.374Z,970.83
2018-10-06T01:20:07.510Z,970.83
2018-10-06T01:21:07.485Z,970.83
2018-10-06T01:22:07.508Z,970.84
2018-10-06T01:23:07.560Z,970.83
2018-10-06T01:24:07.602Z,970.77
2018-10-06T01:25:07.665Z,970.73
2018-10-06T01:26:07.723Z,970.71
2018-10-06T01:27:07.899Z,970.71
2018-10-06T01:28:07.812Z,970.64
2018-10-06T01:29:07.842Z,970.70
2018-10-06T01:30:07.884Z,970.66
2018-10-06T01:31:07.937Z,970.67
2018-10-06T01:32:08.005Z,970.63
2018-10-06T01:33:08.029Z,970.64
2018-10-06T01:34:08.080Z,970.65
2018-10-06T01:35:08.124Z,970.64
2018-10-06T01:36:08.178Z,970.58
2018-10-06T01:37:08.249Z,970.59
2018-10-06T01:38:08.278Z,970.62
2018-10-06T01:39:08.325Z,970.60
2018-10-06T01:40:08.361Z,970.54
2018-10-06T01:41:08.412Z,970.56
2018-10-06T01:42:08.475Z,970.54
2018-10-06T01:43:08.505Z,970.55
2018-10-06T01:44:08.557Z,970.51
2018-10-06T01:45:08.598Z,970.52
2018-10-06T01:46:08.666Z,970.49
2018-10-06T01:47:08.693Z,970.47
2018-10-06T01:48:08.767Z,970.40
2018-10-06T01:49:08.792Z,970.46
2018-10-06T01:50:08.838Z,970.44
2018-10-06T01:51:08.929Z,970.47
2018-10-06T01:52:08.930Z,970.49
2018-10-06T01:53:09.002Z,970.45
2018-10-06T01:54:09.045Z,970.43
2018-10-06T01:55:09.071Z,970.47
2018-10-06T01:56:09.128Z,970.47
2018-10-06T01:57:09.166Z,970.45
2018-10-06T01:58:09.233Z,970.46
2018-10-06T01:59:09.281Z,970.49
2018-10-06T02:00:09.309Z,970.51
2018-10-06T02:01:09.361Z,970.50
2018-10-06T02:02:09.403Z,970.50
2018-10-06T02:03:09.470Z,970.50
2018-10-06T02:04:09.597Z,970.50
2018-10-06T02:05:09.545Z,970.48
2018-10-06T02:06:09.619Z,970.51
2018-10-06T02:07:09.642Z,970.52
2018-10-06T02:08:09.690Z,970.50
2018-10-06T02:09:09.738Z,970.52
2018-10-06T02:10:09.806Z,970.49
2018-10-06T02:11:09.836Z,970.46
2018-10-06T02:12:09.878Z,970.47
2018-10-06T02:13:09.931Z,970.51
2018-10-06T02:14:09.971Z,970.51
2018-10-06T02:15:10.040Z,970.53
2018-10-06T02:16:10.088Z,970.53
2018-10-06T02:17:10.119Z,970.54
2018-10-06T02:18:10.164Z,970.54
2018-10-06T02:19:10.210Z,970.50
2018-10-06T02:20:10.259Z,970.51
2018-10-06T02:21:10.342Z,970.46
2018-10-06T02:22:10.351Z,970.46
2018-10-06T02:23:10.402Z,970.47
2018-10-06T02:24:10.448Z,970.45
2018-10-06T02:25:10.608Z,970.48
2018-10-06T02:26:10.563Z,970.50
2018-10-06T02:27:10.590Z,970.49
2018-10-06T02:28:10.641Z,970.46
2018-10-06T02:29:10.688Z,970.50
2018-10-06T02:30:10.751Z,970.53
2018-10-06T02:31:10.801Z,970.50
2018-10-06T02:32:10.830Z,970.55
2018-10-06T02:33:10.899Z,970.56
2018-10-06T02:34:10.937Z,970.57
2018-10-06T02:35:10.969Z,970.59
2018-10-06T02:36:11.019Z,970.59
2018-10-06T02:37:11.075Z,970.59
2018-10-06T02:38:11.109Z,970.60
2018-10-06T02:39:11.243Z,970.61
2018-10-06T02:40:11.207Z,970.58
2018-10-06T02:41:11.255Z,970.60
2018-10-06T02:42:11.308Z,970.56
2018-10-06T02:43:11.356Z,970.56
2018-10-06T02:44:11.425Z,970.57
2018-10-06T02:45:11.446Z,970.52
2018-10-06T02:46:11.492Z,970.54
2018-10-06T02:47:11.545Z,970.53
2018-10-06T02:48:11.588Z,970.50
2018-10-06T02:49:11.653Z,970.46
2018-10-06T02:50:11.698Z,970.42
2018-10-06T02:51:11.726Z,970.39
2018-10-06T02:52:11.779Z,970.42
2018-10-06T02:53:11.826Z,970.37
2018-10-06T02:54:11.896Z,970.35
2018-10-06T02:55:11.924Z,970.36
2018-10-06T02:56:11.966Z,970.33
2018-10-06T02:57:12.043Z,970.30
2018-10-06T02:58:12.077Z,970.28
2018-10-06T02:59:12.105Z,970.25
2018-10-06T03:00:12.161Z,970.24
2018-10-06T03:01:12.213Z,970.29
2018-10-06T03:02:12.335Z,970.28
2018-10-06T03:03:12.299Z,970.28
2018-10-06T03:04:12.346Z,970.29
2018-10-06T03:05:12.414Z,970.30
2018-10-06T03:06:12.441Z,970.30
2018-10-06T03:07:12.487Z,970.34
2018-10-06T03:08:12.536Z,970.37
2018-10-06T03:09:12.611Z,970.37
2018-10-06T03:10:12.652Z,970.36
2018-10-06T03:11:12.686Z,970.33
2018-10-06T03:12:12.726Z,970.31
2018-10-06T03:13:12.796Z,970.29
2018-10-06T03:14:12.848Z,970.31
2018-10-06T03:15:12.879Z,970.28
2018-10-06T03:16:12.927Z,970.31
2018-10-06T03:17:12.966Z,970.34
2018-10-06T03:18:13.011Z,970.33
2018-10-06T03:19:13.083Z,970.36
2018-10-06T03:20:13.111Z,970.43
2018-10-06T03:21:13.167Z,970.40
2018-10-06T03:22:13.201Z,970.41
2018-10-06T03:23:13.355Z,970.41
2018-10-06T03:24:13.312Z,970.44
2018-10-06T03:25:13.370Z,970.41
2018-10-06T03:26:13.401Z,970.37
2018-10-06T03:27:14.250Z,970.34
2018-10-06T03:28:13.486Z,970.37
2018-10-06T03:29:13.535Z,970.36
2018-10-06T03:30:13.600Z,970.37
2018-10-06T03:31:13.627Z,970.40
2018-10-06T03:32:13.680Z,970.36
2018-10-06T03:33:13.726Z,970.31
2018-10-06T03:34:13.792Z,970.36
2018-10-06T03:35:13.818Z,970.36
2018-10-06T03:36:13.888Z,970.35
2018-10-06T03:37:13.913Z,970.42
2018-10-06T03:38:13.961Z,970.42
2018-10-06T03:39:14.032Z,970.42
2018-10-06T03:40:14.065Z,970.42
2018-10-06T03:41:14.113Z,970.40
2018-10-06T03:42:14.159Z,970.38
2018-10-06T03:43:14.214Z,970.40
2018-10-06T03:44:14.247Z,970.39
2018-10-06T03:45:14.292Z,970.34
2018-10-06T03:46:14.360Z,970.37
2018-10-06T03:47:14.386Z,970.31
2018-10-06T03:48:14.458Z,970.34
2018-10-06T03:49:14.485Z,970.33
2018-10-06T03:50:14.539Z,970.32
2018-10-06T03:51:14.582Z,970.32
2018-10-06T03:52:14.623Z,970.31
2018-10-06T03:53:14.690Z,970.31
2018-10-06T03:54:14.734Z,970.29
2018-10-06T03:55:14.768Z,970.29
2018-10-06T03:56:14.815Z,970.31
2018-10-06T03:57:14.863Z,970.30
2018-10-06T03:58:14.943Z,970.33
2018-10-06T03:59:14.954Z,970.34
2018-10-06T04:00:15.010Z,970.34
2018-10-06T04:01:15.062Z,970.32
2018-10-06T04:02:15.096Z,970.32
2018-10-06T04:03:15.166Z,970.34
2018-10-06T04:04:15.193Z,970.30
2018-10-06T04:05:15.271Z,970.33
2018-10-06T04:06:15.291Z,970.29
2018-10-06T04:07:15.357Z,970.24
2018-10-06T04:08:15.384Z,970.24
2018-10-06T04:09:15.428Z,970.26
2018-10-06T04:10:15.504Z,970.25
2018-10-06T04:11:15.534Z,970.21
2018-10-06T04:12:15.569Z,970.25
2018-10-06T04:13:15.618Z,970.21
2018-10-06T04:14:15.668Z,970.19
2018-10-06T04:15:15.745Z,970.16
2018-10-06T04:16:15.758Z,970.18
2018-10-06T04:17:15.822Z,970.13
2018-10-06T04:18:15.851Z,970.15
2018-10-06T04:19:15.903Z,970.13
2018-10-06T04:20:15.965Z,970.14
2018-10-06T04:21:15.997Z,970.14
2018-10-06T04:22:16.065Z,970.10
2018-10-06T04:23:16.086Z,970.07
2018-10-06T04:24:16.136Z,970.05
2018-10-06T04:25:16.183Z,970.03
2018-10-06T04:26:16.228Z,970.04
2018-10-06T04:27:16.305Z,970.03
2018-10-06T04:28:16.353Z,970.00
2018-10-06T04:29:16.370Z,969.94
2018-10-06T04:30:16.422Z,969.96
2018-10-06T04:31:16.473Z,969.95
2018-10-06T04:32:16.540Z,969.92
2018-10-06T04:33:16.564Z,969.89
2018-10-06T04:34:16.611Z,969.90
2018-10-06T04:35:16.651Z,969.90
2018-10-06T04:36:16.705Z,969.82
2018-10-06T04:37:16.787Z,969.86
2018-10-06T04:38:16.816Z,969.87
2018-10-06T04:39:16.870Z,969.84
2018-10-06T04:40:16.899Z,969.82
2018-10-06T04:41:16.946Z,969.85
2018-10-06T04:42:16.983Z,969.84
2018-10-06T04:43:17.037Z,969.89
2018-10-06T04:44:17.100Z,969.83
2018-10-06T04:45:17.134Z,969.85
2018-10-06T04:46:17.171Z,969.83
2018-10-06T04:47:17.227Z,969.83
2018-10-06T04:48:17.294Z,969.79
2018-10-06T04:49:17.335Z,969.82
2018-10-06T04:50:17.367Z,969.87
2018-10-06T04:51:17.412Z,969.85
2018-10-06T04:52:17.467Z,969.90
2018-10-06T04:53:17.590Z,969.85
2018-10-06T04:54:17.550Z,969.86
2018-10-06T04:55:17.617Z,969.85
2018-10-06T04:56:17.645Z,969.86
2018-10-06T04:57:17.695Z,969.77
2018-10-06T04:58:17.761Z,969.77
2018-10-06T04:59:17.791Z,969.80
2018-10-06T05:00:17.855Z,969.81
2018-10-06T05:01:17.886Z,969.77
2018-10-06T05:02:17.930Z,969.75
2018-10-06T05:03:18.016Z,969.74
2018-10-06T05:04:18.029Z,969.79
2018-10-06T05:05:18.097Z,969.77
2018-10-06T05:06:18.123Z,969.75
2018-10-06T05:07:18.167Z,969.78
2018-10-06T05:08:18.217Z,969.81
2018-10-06T05:09:18.266Z,969.76
2018-10-06T05:10:18.329Z,969.82
2018-10-06T05:11:18.355Z,969.85
2018-10-06T05:12:18.405Z,969.85
2018-10-06T05:13:18.452Z,969.88
2018-10-06T05:14:18.502Z,969.90
2018-10-06T05:15:18.564Z,969.90
2018-10-06T05:16:18.620Z,969.93
2018-10-06T05:17:18.642Z,969.94
2018-10-06T05:18:18.708Z,969.93
2018-10-06T05:19:18.744Z,969.92
2018-10-06T05:20:18.787Z,969.92
2018-10-06T05:21:18.833Z,969.92
2018-10-06T05:22:18.910Z,969.91
2018-10-06T05:23:19.013Z,969.90
2018-10-06T05:24:18.981Z,969.91
2018-10-06T05:25:19.042Z,969.90
2018-10-06T05:26:19.079Z,969.91
2018-10-06T05:27:19.121Z,969.89
2018-10-06T05:28:19.165Z,969.89
2018-10-06T05:29:19.233Z,969.93
2018-10-06T05:30:19.268Z,969.96
2018-10-06T05:31:19.309Z,969.92
2018-10-06T05:32:19.372Z,969.93
2018-10-06T05:33:19.401Z,969.91
2018-10-06T05:34:19.477Z,969.94
2018-10-06T05:35:19.494Z,969.91
2018-10-06T05:36:19.543Z,969.93
2018-10-06T05:37:19.590Z,969.90
2018-10-06T05:38:19.659Z,969.85
2018-10-06T05:39:19.713Z,969.90
2018-10-06T05:40:19.732Z,969.89
2018-10-06T05:41:19.783Z,969.88
2018-10-06T05:42:19.827Z,969.89
2018-10-06T05:43:19.889Z,969.87
2018-10-06T05:44:19.951Z,969.87
2018-10-06T05:45:19.982Z,969.90
2018-10-06T05:46:20.078Z,969.90
2018-10-06T05:47:20.078Z,969.93
2018-10-06T05:48:20.136Z,969.97
2018-10-06T05:49:20.171Z,969.93
2018-10-06T05:50:20.226Z,969.97
2018-10-06T05:51:20.258Z,970.03
2018-10-06T05:52:20.310Z,970.05
2018-10-06T05:53:20.365Z,970.08
2018-10-06T05:54:20.526Z,970.04
2018-10-06T05:55:20.453Z,970.07
2018-10-06T05:56:20.493Z,970.04
2018-10-06T05:57:20.542Z,970.04
2018-10-06T05:58:20.599Z,970.03
2018-10-06T05:59:20.658Z,970.02
2018-10-06T06:00:20.687Z,970.03
2018-10-06T06:01:20.733Z,970.03
2018-10-06T06:02:20.795Z,970.01
2018-10-06T06:03:20.830Z,970.03
2018-10-06T06:04:20.912Z,970.06
2018-10-06T06:05:20.935Z,970.02
2018-10-06T06:06:20.967Z,969.98
2018-10-06T06:07:21.015Z,969.99
2018-10-06T06:08:21.063Z,970.03
2018-10-06T06:09:21.140Z,970.05
2018-10-06T06:10:21.161Z,970.11
2018-10-06T06:11:21.206Z,970.10
2018-10-06T06:12:21.276Z,970.11
2018-10-06T06:13:21.312Z,970.10
2018-10-06T06:14:21.359Z,970.07
2018-10-06T06:15:21.399Z,970.04
2018-10-06T06:16:21.456Z,970.04
2018-10-06T06:17:21.512Z,970.04
2018-10-06T06:18:21.550Z,970.00
2018-10-06T06:19:21.617Z,969.99
2018-10-06T06:20:21.646Z,969.97
2018-10-06T06:21:21.697Z,969.94
2018-10-06T06:22:21.767Z,969.98
2018-10-06T06:23:21.792Z,969.98
2018-10-06T06:24:21.829Z,969.97
2018-10-06T06:25:21.880Z,969.98
2018-10-06T06:26:21.926Z,970.04
2018-10-06T06:27:21.994Z,970.01
2018-10-06T06:28:22.022Z,970.02
2018-10-06T06:29:22.071Z,969.98
2018-10-06T06:30:22.122Z,969.97
2018-10-06T06:31:22.226Z,970.04
2018-10-06T06:32:22.280Z,970.02
2018-10-06T06:33:22.265Z,970.03
2018-10-06T06:34:22.331Z,969.98
2018-10-06T06:35:22.358Z,969.99
2018-10-06T06:36:22.441Z,969.93
2018-10-06T06:37:22.513Z,969.92
2018-10-06T06:38:22.634Z,969.95
2018-10-06T06:39:22.558Z,969.96
2018-10-06T06:40:22.611Z,969.99
2018-10-06T06:41:22.651Z,970.00
2018-10-06T06:42:22.713Z,969.99
2018-10-06T06:43:22.766Z,970.01
2018-10-06T06:44:22.896Z,970.00
2018-10-06T06:45:22.949Z,969.96
2018-10-06T06:46:22.897Z,969.99
2018-10-06T06:47:22.955Z,970.02
2018-10-06T06:48:23.014Z,969.99
2018-10-06T06:49:23.041Z,970.00
2018-10-06T06:50:23.086Z,970.02
2018-10-06T06:51:23.130Z,970.04
2018-10-06T06:52:23.259Z,970.03
2018-10-06T06:53:23.254Z,970.01
2018-10-06T06:54:23.282Z,970.04
2018-10-06T06:55:23.353Z,970.05
2018-10-06T06:56:23.374Z,970.04
2018-10-06T06:57:23.421Z,970.01
2018-10-06T06:58:23.492Z,969.99
2018-10-06T06:59:23.519Z,970.04
2018-10-06T07:00:23.565Z,970.04
2018-10-06T07:01:23.649Z,970.05
2018-10-06T07:02:23.662Z,970.05
2018-10-06T07:03:23.710Z,970.04
2018-10-06T07:04:23.796Z,970.09
2018-10-06T07:05:23.811Z,970.04
2018-10-06T07:06:23.957Z,970.02
2018-10-06T07:07:23.933Z,970.10
2018-10-06T07:08:23.954Z,970.09
2018-10-06T07:09:24.003Z,970.07
2018-10-06T07:10:24.053Z,970.09
2018-10-06T07:11:24.102Z,970.05
2018-10-06T07:12:24.237Z,970.09
2018-10-06T07:13:24.208Z,970.07
2018-10-06T07:14:24.281Z,970.13
2018-10-06T07:15:24.303Z,970.08
2018-10-06T07:16:24.346Z,970.07
2018-10-06T07:17:24.403Z,970.07
2018-10-06T07:18:24.464Z,970.08
2018-10-06T07:19:24.518Z,970.07
2018-10-06T07:20:24.545Z,970.02
2018-10-06T07:21:24.588Z,970.02
2018-10-06T07:22:24.652Z,970.06
2018-10-06T07:23:24.686Z,970.04
2018-10-06T07:24:24.758Z,970.06
2018-10-06T07:25:24.812Z,970.05
2018-10-06T07:26:24.831Z,970.06
2018-10-06T07:27:24.902Z,970.12
2018-10-06T07:28:24.958Z,970.12
2018-10-06T07:29:24.980Z,970.10
2018-10-06T07:30:25.027Z,970.16
2018-10-06T07:31:25.116Z,970.17
2018-10-06T07:32:25.157Z,970.15
2018-10-06T07:33:25.177Z,970.18
2018-10-06T07:34:25.222Z,970.18
2018-10-06T07:35:25.278Z,970.16
2018-10-06T07:36:25.357Z,970.15
2018-10-06T07:37:25.378Z,970.10
2018-10-06T07:38:25.453Z,970.12
2018-10-06T07:39:25.472Z,970.11
2018-10-06T07:40:25.526Z,970.15
2018-10-06T07:41:25.583Z,970.12
2018-10-06T07:42:25.621Z,970.10
2018-10-06T07:43:25.689Z,970.10
2018-10-06T07:44:25.722Z,970.09
2018-10-06T07:45:25.784Z,970.14
2018-10-06T07:46:25.834Z,970.09
2018-10-06T07:47:25.864Z,970.11
2018-10-06T07:48:25.947Z,970.11
2018-10-06T07:49:25.961Z,970.07
2018-10-06T07:50:26.012Z,970.08
2018-10-06T07:51:26.072Z,970.12
2018-10-06T07:52:26.136Z,970.05
2018-10-06T07:53:26.163Z,970.06
2018-10-06T07:54:26.234Z,970.03
2018-10-06T07:55:26.271Z,970.02
2018-10-06T07:56:26.329Z,970.01
2018-10-06T07:57:26.371Z,970.00
2018-10-06T07:58:26.425Z,970.05
2018-10-06T07:59:26.507Z,970.03
2018-10-06T08:00:26.523Z,970.09
2018-10-06T08:01:26.554Z,970.08
2018-10-06T08:02:26.664Z,970.09
2018-10-06T08:03:26.677Z,970.02
2018-10-06T08:04:26.701Z,970.05
2018-10-06T08:05:26.759Z,970.04
2018-10-06T08:06:26.837Z,970.05
2018-10-06T08:07:26.861Z,970.05
2018-10-06T08:08:26.976Z,970.05
2018-10-06T08:09:27.063Z,970.03
2018-10-06T08:10:26.994Z,970.05
2018-10-06T08:11:27.053Z,970.08
2018-10-06T08:12:27.124Z,970.08
2018-10-06T08:13:27.161Z,970.03
2018-10-06T08:14:27.235Z,970.08
2018-10-06T08:15:27.242Z,970.06
2018-10-06T08:16:27.422Z,970.07
2018-10-06T08:17:27.356Z,970.09
2018-10-06T08:18:27.433Z,970.02
2018-10-06T08:19:27.456Z,970.02
2018-10-06T08:20:27.513Z,969.97
2018-10-06T08:21:27.545Z,970.01
2018-10-06T08:22:27.590Z,970.01
2018-10-06T08:23:27.714Z,970.02
2018-10-06T08:24:27.688Z,970.01
2018-10-06T08:25:27.745Z,969.94
2018-10-06T08:26:27.799Z,969.94
2018-10-06T08:27:27.856Z,969.91
2018-10-06T08:28:28.321Z,969.93
2018-10-06T08:29:27.937Z,969.94
2018-10-06T08:30:27.996Z,969.91
2018-10-06T08:31:28.039Z,969.92
2018-10-06T08:32:28.090Z,969.90
2018-10-06T08:33:28.136Z,969.87
2018-10-06T08:34:28.199Z,969.84
2018-10-06T08:35:28.260Z,969.85
2018-10-06T08:36:28.294Z,969.86
2018-10-06T08:37:28.344Z,969.84
2018-10-06T08:38:28.397Z,969.88
2018-10-06T08:39:28.476Z,969.89
2018-10-06T08:40:28.486Z,969.86
2018-10-06T08:41:28.529Z,969.87
2018-10-06T08:42:28.585Z,969.85
2018-10-06T08:43:28.624Z,969.86
2018-10-06T08:44:28.719Z,969.88
2018-10-06T08:45:28.737Z,969.85
2018-10-06T08:46:29.491Z,969.90
2018-10-06T08:47:28.825Z,969.90
2018-10-06T08:48:28.877Z,969.92
2018-10-06T08:49:28.948Z,969.97
2018-10-06T08:50:28.975Z,969.94
2018-10-06T08:51:29.047Z,969.96
2018-10-06T08:52:29.073Z,969.91
2018-10-06T08:53:29.126Z,969.91
2018-10-06T08:54:29.192Z,969.89
2018-10-06T08:55:29.224Z,969.89
2018-10-06T08:56:29.368Z,969.84
2018-10-06T08:57:29.340Z,969.90
2018-10-06T08:58:29.370Z,969.90
2018-10-06T08:59:29.420Z,969.89
2018-10-06T09:00:29.495Z,969.88
2018-10-06T09:01:29.547Z,969.85
2018-10-06T09:02:29.572Z,969.83
2018-10-06T09:03:29.622Z,969.86
2018-10-06T09:04:29.691Z,969.86
2018-10-06T09:05:29.894Z,969.91
2018-10-06T09:06:29.783Z,969.90
2018-10-06T09:07:29.862Z,969.95
2018-10-06T09:08:29.869Z,969.92
2018-10-06T09:09:29.920Z,969.93
2018-10-06T09:10:29.966Z,969.91
2018-10-06T09:11:30.063Z,969.94
2018-10-06T09:12:30.146Z,969.89
2018-10-06T09:13:30.147Z,969.85
2018-10-06T09:14:30.171Z,969.85
2018-10-06T09:15:30.220Z,969.81
2018-10-06T09:16:30.267Z,969.84
2018-10-06T09:17:30.318Z,969.84
2018-10-06T09:18:30.388Z,969.80
2018-10-06T09:19:30.439Z,969.82
2018-10-06T09:20:30.470Z,969.80
2018-10-06T09:21:30.518Z,969.76
2018-10-06T09:22:30.571Z,969.72
2018-10-06T09:23:30.637Z,969.70
2018-10-06T09:24:30.666Z,969.67
2018-10-06T09:25:30.716Z,969.67
2018-10-06T09:26:30.913Z,969.67
2018-10-06T09:27:31.810Z,969.66
2018-10-06T09:28:30.869Z,969.69
2018-10-06T09:29:30.917Z,969.67
2018-10-06T09:30:30.997Z,969.64
2018-10-06T09:31:31.028Z,969.65
2018-10-06T09:32:31.074Z,969.63
2018-10-06T09:33:31.270Z,969.63
2018-10-06T09:34:31.168Z,969.62
2018-10-06T09:35:31.238Z,969.61
2018-10-06T09:36:31.274Z,969.58
2018-10-06T09:37:31.320Z,969.58
2018-10-06T09:38:31.379Z,969.54
2018-10-06T09:39:31.426Z,969.50
2018-10-06T09:40:31.521Z,969.53
2018-10-06T09:41:31.522Z,969.57
2018-10-06T09:42:31.712Z,969.52
2018-10-06T09:43:31.643Z,969.54
2018-10-06T09:44:31.679Z,969.55
2018-10-06T09:45:31.751Z,969.52
2018-10-06T09:46:31.770Z,969.50
2018-10-06T09:47:31.824Z,969.47
2018-10-06T09:48:31.880Z,969.45
2018-10-06T09:49:31.945Z,969.43
2018-10-06T09:50:32.006Z,969.44
2018-10-06T09:51:32.035Z,969.41
2018-10-06T09:52:32.077Z,969.42
2018-10-06T09:53:32.151Z,969.44
2018-10-06T09:54:32.176Z,969.43
2018-10-06T09:55:32.257Z,969.42
2018-10-06T09:56:32.284Z,969.42
2018-10-06T09:57:32.334Z,969.42
2018-10-06T09:58:32.391Z,969.41
2018-10-06T09:59:32.491Z,969.36
2018-10-06T10:00:32.510Z,969.37
2018-10-06T10:01:32.533Z,969.38
2018-10-06T10:02:32.591Z,969.40
2018-10-06T10:03:32.641Z,969.36
2018-10-06T10:04:32.684Z,969.31
2018-10-06T10:05:32.786Z,969.32
2018-10-06T10:06:32.785Z,969.33
2018-10-06T10:07:32.861Z,969.33
2018-10-06T10:08:32.898Z,969.35
2018-10-06T10:09:32.968Z,969.30
2018-10-06T10:10:32.989Z,969.33
2018-10-06T10:11:33.042Z,969.32
2018-10-06T10:12:33.138Z,969.29
2018-10-06T10:13:33.144Z,969.27
2018-10-06T10:14:33.219Z,969.26
2018-10-06T10:15:33.318Z,969.30
2018-10-06T10:16:33.296Z,969.30
2018-10-06T10:17:33.400Z,969.26
2018-10-06T10:18:33.424Z,969.28
2018-10-06T10:19:33.452Z,969.26
2018-10-06T10:20:33.505Z,969.24
2018-10-06T10:21:33.575Z,969.22
2018-10-06T10:22:33.809Z,969.19
2018-10-06T10:23:33.761Z,969.23
2018-10-06T10:24:33.746Z,969.22
2018-10-06T10:25:33.766Z,969.20
2018-10-06T10:26:33.822Z,969.19
2018-10-06T10:27:33.866Z,969.21
2018-10-06T10:28:33.917Z,969.16
2018-10-06T10:29:34.002Z,969.17
2018-10-06T10:30:34.029Z,969.16
2018-10-06T10:31:34.071Z,969.15
2018-10-06T10:32:34.121Z,969.17
2018-10-06T10:33:34.192Z,969.16
2018-10-06T10:34:34.280Z,969.15
2018-10-06T10:35:34.278Z,969.14
2018-10-06T10:36:34.379Z,969.18
2018-10-06T10:37:34.442Z,969.15
2018-10-06T10:38:34.431Z,969.15
2018-10-06T10:39:34.635Z,969.08
2018-10-06T10:40:34.575Z,969.10
2018-10-06T10:41:34.597Z,969.11
2018-10-06T10:42:34.634Z,969.12
2018-10-06T10:43:34.695Z,969.06
2018-10-06T10:44:34.814Z,969.08
2018-10-06T10:45:34.808Z,969.08
2018-10-06T10:46:34.861Z,969.04
2018-10-06T10:47:34.894Z,969.05
2018-10-06T10:48:34.958Z,969.04
2018-10-06T10:49:35.068Z,969.00
2018-10-06T10:50:35.060Z,969.03
2018-10-06T10:51:35.123Z,969.03
2018-10-06T10:52:35.168Z,968.99
2018-10-06T10:53:35.230Z,968.99
2018-10-06T10:54:35.293Z,968.97
2018-10-06T10:55:35.338Z,968.97
2018-10-06T10:56:35.383Z,968.96
2018-10-06T10:57:35.477Z,968.93
2018-10-06T10:58:35.458Z,968.89
2018-10-06T10:59:35.613Z,968.86
2018-10-06T11:00:35.626Z,968.81
2018-10-06T11:01:35.645Z,968.84
2018-10-06T11:02:35.782Z,968.77
2018-10-06T11:03:35.716Z,968.83
2018-10-06T11:04:35.823Z,968.78
2018-10-06T11:05:35.826Z,968.78
2018-10-06T11:06:35.881Z,968.78
2018-10-06T11:07:35.967Z,968.74
2018-10-06T11:08:35.985Z,968.77
2018-10-06T11:09:36.080Z,968.73
2018-10-06T11:10:36.091Z,968.71
2018-10-06T11:11:36.142Z,968.69
2018-10-06T11:12:36.195Z,968.66
2018-10-06T11:13:36.268Z,968.60
2018-10-06T11:14:36.333Z,968.60
2018-10-06T11:15:36.353Z,968.56
2018-10-06T11:16:36.459Z,968.49
2018-10-06T11:17:37.036Z,968.44
2018-10-06T11:18:36.533Z,968.44
2018-10-06T11:19:36.620Z,968.44
2018-10-06T11:20:36.636Z,968.46
2018-10-06T11:21:36.687Z,968.47
2018-10-06T11:22:36.734Z,968.41
2018-10-06T11:23:36.806Z,968.39
2018-10-06T11:24:36.859Z,968.40
2018-10-06T11:25:36.920Z,968.38
2018-10-06T11:26:36.949Z,968.35
2018-10-06T11:27:37.006Z,968.34
2018-10-06T11:28:37.056Z,968.31
2018-10-06T11:29:37.165Z,968.28
2018-10-06T11:30:37.161Z,968.20
2018-10-06T11:31:37.213Z,968.18
2018-10-06T11:32:37.260Z,968.14
2018-10-06T11:33:37.316Z,968.17
2018-10-06T11:34:37.405Z,968.22
2018-10-06T11:35:37.552Z,968.14
2018-10-06T11:36:37.504Z,968.16
2018-10-06T11:37:37.677Z,968.09
2018-10-06T11:38:37.580Z,968.08
2018-10-06T11:39:37.637Z,968.02
2018-10-06T11:40:37.684Z,968.04
2018-10-06T11:41:37.775Z,967.98
2018-10-06T11:42:37.797Z,967.94
2018-10-06T11:43:37.845Z,967.95
2018-10-06T11:44:37.913Z,967.94
2018-10-06T11:45:37.981Z,968.05
2018-10-06T11:46:38.045Z,968.04
2018-10-06T11:47:38.057Z,968.05
2018-10-06T11:48:38.124Z,968.03
2018-10-06T11:49:38.195Z,968.00
2018-10-06T11:50:38.243Z,967.98
2018-10-06T11:51:38.272Z,967.90
2018-10-06T11:52:38.370Z,967.91
2018-10-06T11:53:38.381Z,967.98
2018-10-06T11:54:38.458Z,967.89
2018-10-06T11:55:38.500Z,967.91
2018-10-06T11:56:38.543Z,967.87
2018-10-06T11:57:38.648Z,967.86
2018-10-06T11:58:38.683Z,967.88
2018-10-06T11:59:38.720Z,967.88
2018-10-06T12:00:38.795Z,967.84
2018-10-06T12:01:38.815Z,967.79
2018-10-06T12:02:38.885Z,967.77
2018-10-06T12:03:38.931Z,967.70
2018-10-06T12:04:38.981Z,967.65
2018-10-06T12:05:39.125Z,967.66
2018-10-06T12:06:39.089Z,967.59
2018-10-06T12:07:39.155Z,967.61
2018-10-06T12:08:39.334Z,967.53
2018-10-06T12:09:39.256Z,967.57
2018-10-06T12:10:39.316Z,967.53
2018-10-06T12:11:39.365Z,967.51
2018-10-06T12:12:39.425Z,967.51
2018-10-06T12:13:40.060Z,967.50
2018-10-06T12:14:39.534Z,967.47
2018-10-06T12:15:39.674Z,967.47
2018-10-06T12:16:39.645Z,967.47
2018-10-06T12:17:39.706Z,967.51
2018-10-06T12:18:39.796Z,967.45
2018-10-06T12:19:39.828Z,967.43
2018-10-06T12:20:39.926Z,967.46
2018-10-06T12:21:39.923Z,967.41
2018-10-06T12:22:39.982Z,967.44
2018-10-06T12:23:40.044Z,967.40
2018-10-06T12:24:40.081Z,967.42
2018-10-06T12:25:40.143Z,967.37
2018-10-06T12:26:40.216Z,967.41
2018-10-06T12:27:40.251Z,967.36
2018-10-06T12:28:40.298Z,967.38